Time;durP1;ratioP1;P1;durP2;ratioP2;P2;SDS_P1;SDS_P2;PMS_P1;PMS_P2;Temp;Humidity;BMP_temperature;BMP_pressure;BME280_temperature;BME280_humidity;BME280_pressure;Samples;Min_cycle;Max_cycle;Signal;HPM_P1;HPM_P2
2022/09/21 00:01:27;;;;;;;8.37;2.80;;;9.90;99.90;;;;;;4997041;28;20757;-66
2022/09/21 00:04:01;;;;;;;5.90;3.10;;;9.90;99.90;;;;;;4990573;28;20392;-66
2022/09/21 00:06:29;;;;;;;6.27;2.77;;;9.90;99.90;;;;;;4997740;28;20282;-66
2022/09/21 00:08:55;;;;;;;5.13;2.70;;;9.80;99.90;;;;;;4997243;28;20288;-66
2022/09/21 00:11:25;;;;;;;9.50;2.80;;;9.90;99.90;;;;;;4996783;28;20289;-66
2022/09/21 00:13:58;;;;;;;8.90;3.27;;;9.90;99.90;;;;;;4996512;28;20773;-66
2022/09/21 00:16:24;;;;;;;9.00;2.73;;;9.80;99.90;;;;;;4995580;28;20768;-66
2022/09/21 00:18:51;;;;;;;5.67;2.80;;;9.90;99.90;;;;;;4996358;28;20317;-66
2022/09/21 00:21:17;;;;;;;8.37;2.67;;;9.90;99.90;;;;;;4996605;28;20129;-67
2022/09/21 00:23:43;;;;;;;5.40;2.83;;;9.80;99.90;;;;;;4997268;28;20313;-66
2022/09/21 00:26:18;;;;;;;9.63;2.50;;;9.80;99.90;;;;;;4996544;28;20364;-66
2022/09/21 00:28:45;;;;;;;9.63;2.45;;;9.80;99.90;;;;;;4996146;28;20360;-66
2022/09/21 00:31:14;;;;;;;4.47;2.40;;;9.70;99.90;;;;;;4996905;28;20113;-66
2022/09/21 00:33:41;;;;;;;5.07;2.30;;;9.60;99.90;;;;;;4996397;28;20277;-66
2022/09/21 00:36:13;;;;;;;5.17;2.30;;;9.70;99.90;;;;;;4995624;28;20273;-66
2022/09/21 00:38:39;;;;;;;5.17;2.20;;;9.60;99.90;;;;;;4996154;28;20813;-66
2022/09/21 00:41:07;;;;;;;5.27;2.40;;;9.70;99.90;;;;;;4996282;28;20277;-66
2022/09/21 00:43:35;;;;;;;5.37;2.63;;;9.70;99.90;;;;;;4996170;28;20281;-66
2022/09/21 00:46:12;;;;;;;5.07;2.53;;;9.60;99.90;;;;;;4996687;28;20277;-66
2022/09/21 00:48:38;;;;;;;5.10;1.93;;;9.70;99.90;;;;;;4996123;28;20738;-66
2022/09/21 00:51:07;;;;;;;8.50;2.50;;;9.60;99.90;;;;;;4996055;28;20343;-66
2022/09/21 00:53:35;;;;;;;4.83;2.37;;;9.70;99.90;;;;;;4996499;28;20073;-66
2022/09/21 00:56:03;;;;;;;4.87;1.80;;;9.70;99.90;;;;;;4995673;28;20758;-66
2022/09/21 00:58:42;;;;;;;4.30;1.90;;;9.60;99.90;;;;;;4995821;28;20289;-67
2022/09/21 01:01:09;;;;;;;7.53;2.20;;;9.60;99.90;;;;;;4996674;28;20685;-66
2022/09/21 01:03:35;;;;;;;4.80;1.80;;;9.60;99.90;;;;;;4995866;28;20289;-66
2022/09/21 01:06:01;;;;;;;4.93;2.03;;;9.50;99.90;;;;;;4995139;28;20288;-66
2022/09/21 01:08:28;;;;;;;4.33;1.80;;;9.50;99.90;;;;;;4995682;28;20129;-66
2022/09/21 01:10:54;;;;;;;5.97;2.10;;;9.50;99.90;;;;;;4994445;28;20777;-66
2022/09/21 01:13:25;;;;;;;4.20;1.90;;;9.50;99.90;;;;;;4995719;28;20293;-66
2022/09/21 01:16:00;;;;;;;6.47;2.17;;;9.50;99.90;;;;;;4996394;28;20058;-66
2022/09/21 01:18:50;;;;;;;5.43;2.08;;;9.50;99.90;;;;;;4996095;28;20293;-66
2022/09/21 01:21:17;;;;;;;5.10;1.90;;;9.50;99.90;;;;;;4996084;28;20058;-66
2022/09/21 01:24:14;;;;;;;8.07;2.10;;;9.40;99.90;;;;;;4994924;28;20297;-66
2022/09/21 01:27:11;;;;;;;3.80;2.07;;;9.50;99.90;;;;;;4994894;28;20689;-66
2022/09/21 01:29:51;;;;;;;7.37;2.40;;;9.50;99.90;;;;;;4995060;28;20340;-66
2022/09/21 01:32:33;;;;;;;7.23;2.00;;;9.40;99.90;;;;;;4995870;28;20278;-66
2022/09/21 01:35:05;;;;;;;4.27;1.73;;;9.40;99.90;;;;;;4995377;28;20278;-66
2022/09/21 01:37:34;;;;;;;3.40;1.80;;;9.30;99.90;;;;;;4995091;28;20323;-66
2022/09/21 01:40:06;;;;;;;6.77;2.17;;;9.30;99.90;;;;;;4994974;28;20281;-66
2022/09/21 01:42:34;;;;;;;4.03;1.80;;;9.30;99.90;;;;;;4995276;28;20405;-66
2022/09/21 01:45:05;;;;;;;5.70;2.60;;;9.30;99.90;;;;;;4995090;28;20285;-66
2022/09/21 01:47:34;;;;;;;4.10;1.70;;;9.20;99.90;;;;;;4994037;28;20285;-66
2022/09/21 01:50:04;;;;;;;7.57;2.83;;;9.20;99.90;;;;;;4994997;28;20274;-66
2022/09/21 01:52:36;;;;;;;4.90;2.10;;;9.20;99.90;;;;;;4995676;28;20278;-67
2022/09/21 01:55:17;;;;;;;5.33;2.17;;;9.20;99.90;;;;;;4995373;28;20473;-66
2022/09/21 01:57:58;;;;;;;6.27;1.90;;;9.20;99.90;;;;;;4994747;28;20438;-66
2022/09/21 02:00:24;;;;;;;7.17;2.33;;;9.20;99.90;;;;;;4995428;28;20280;-66
2022/09/21 02:02:54;;;;;;;5.63;1.87;;;9.20;99.90;;;;;;4993712;28;20296;-66
2022/09/21 02:05:22;;;;;;;3.50;1.90;;;9.20;99.90;;;;;;4993943;28;20282;-66
2022/09/21 02:07:50;;;;;;;6.27;2.40;;;9.10;99.90;;;;;;4994600;28;20278;-66
2022/09/21 02:10:34;;;;;;;4.40;2.20;;;9.20;99.90;;;;;;4994293;28;20762;-66
2022/09/21 02:13:05;;;;;;;5.50;1.93;;;9.10;99.90;;;;;;4994591;28;20294;-66
2022/09/21 02:15:57;;;;;;;4.83;2.03;;;9.10;99.90;;;;;;4995045;28;20278;-67
2022/09/21 02:18:41;;;;;;;4.20;2.10;;;9.10;99.90;;;;;;4966650;28;20786;-66
2022/09/21 02:21:20;;;;;;;4.37;2.10;;;9.00;99.90;;;;;;4995200;28;20322;-66
2022/09/21 02:24:02;;;;;;;6.00;2.20;;;9.10;99.90;;;;;;4994156;28;20828;-66
2022/09/21 02:26:57;;;;;;;4.40;2.00;;;9.00;99.90;;;;;;4994585;28;20722;-66
2022/09/21 02:29:42;;;;;;;6.60;2.30;;;9.10;99.90;;;;;;4994634;28;20332;-66
2022/09/21 02:32:22;;;;;;;4.97;2.13;;;9.00;99.90;;;;;;4994288;28;20294;-66
2022/09/21 02:34:56;;;;;;;3.80;1.73;;;9.00;99.90;;;;;;4994696;28;20313;-66
2022/09/21 02:37:33;;;;;;;7.57;2.50;;;9.10;99.90;;;;;;4994910;28;20300;-66
2022/09/21 02:40:07;;;;;;;3.87;1.97;;;9.10;99.90;;;;;;4993922;28;20824;-66
2022/09/21 02:42:38;;;;;;;7.87;2.10;;;9.10;99.90;;;;;;4993417;28;20290;-67
2022/09/21 02:45:19;;;;;;;6.87;2.30;;;9.00;99.90;;;;;;4994341;28;20281;-66
2022/09/21 02:48:03;;;;;;;3.83;2.00;;;9.00;99.90;;;;;;4994111;28;20266;-66
2022/09/21 02:50:41;;;;;;;6.30;2.13;;;8.90;99.90;;;;;;4994616;28;20321;-66
2022/09/21 02:53:09;;;;;;;4.03;2.00;;;8.90;99.90;;;;;;4994767;28;20273;-66
2022/09/21 02:55:35;;;;;;;6.87;2.30;;;8.90;99.90;;;;;;4993953;28;20686;-67
2022/09/21 02:58:06;;;;;;;3.60;2.07;;;8.80;99.90;;;;;;4993572;28;20840;-66
2022/09/21 03:00:34;;;;;;;5.23;2.07;;;8.80;99.90;;;;;;4993984;28;20277;-66
2022/09/21 03:03:16;;;;;;;6.43;2.70;;;8.90;99.90;;;;;;4993889;28;20273;-66
2022/09/21 03:05:48;;;;;;;5.50;2.60;;;8.90;99.90;;;;;;4994122;28;20750;-66
2022/09/21 03:08:14;;;;;;;4.67;2.13;;;8.80;99.90;;;;;;4993903;28;20269;-66
2022/09/21 03:10:40;;;;;;;5.33;2.43;;;8.80;99.90;;;;;;4993773;28;20277;-66
2022/09/21 03:13:09;;;;;;;5.90;2.10;;;8.80;99.90;;;;;;4993797;28;20284;-66
2022/09/21 03:15:36;;;;;;;5.73;2.43;;;8.80;99.90;;;;;;4993721;28;20050;-68
2022/09/21 03:18:08;;;;;;;5.63;2.53;;;8.80;99.90;;;;;;4993681;28;20384;-66
2022/09/21 03:20:35;;;;;;;4.47;2.10;;;8.80;99.90;;;;;;4993784;28;20297;-66
2022/09/21 03:23:01;;;;;;;5.43;2.07;;;8.80;99.90;;;;;;4993719;28;20288;-66
2022/09/21 03:25:28;;;;;;;4.87;2.20;;;8.70;99.90;;;;;;4993727;28;20300;-66
2022/09/21 03:27:54;;;;;;;5.30;2.27;;;8.70;99.90;;;;;;4994369;28;20309;-66
2022/09/21 03:30:21;;;;;;;5.43;2.10;;;8.70;99.90;;;;;;4993589;28;20293;-66
2022/09/21 03:32:53;;;;;;;4.60;2.37;;;8.70;99.90;;;;;;4994347;28;20281;-66
2022/09/21 03:35:21;;;;;;;4.33;1.97;;;8.70;99.90;;;;;;4993563;28;20283;-66
2022/09/21 03:37:48;;;;;;;8.07;2.10;;;8.70;99.90;;;;;;4993490;28;20336;-66
2022/09/21 03:40:15;;;;;;;7.37;2.30;;;8.70;99.90;;;;;;4993581;28;20278;-66
2022/09/21 03:42:41;;;;;;;5.23;2.30;;;8.60;99.90;;;;;;4993551;28;20289;-66
2022/09/21 03:45:08;;;;;;;4.97;1.80;;;8.70;99.90;;;;;;4993516;28;20389;-66
2022/09/21 03:47:34;;;;;;;5.20;2.30;;;8.60;99.90;;;;;;4993549;28;20365;-66
2022/09/21 03:50:00;;;;;;;5.03;2.00;;;8.60;99.90;;;;;;4993725;28;20379;-66
2022/09/21 03:52:26;;;;;;;5.73;2.07;;;8.60;99.90;;;;;;4992781;28;20317;-66
2022/09/21 03:54:53;;;;;;;5.57;1.93;;;8.60;99.90;;;;;;4993465;28;20042;-66
2022/09/21 03:57:19;;;;;;;5.17;2.43;;;8.60;99.90;;;;;;4993865;28;20294;-66
2022/09/21 03:59:45;;;;;;;5.53;2.10;;;8.60;99.90;;;;;;4994148;28;20344;-66
2022/09/21 04:02:11;;;;;;;6.77;2.30;;;8.50;99.90;;;;;;4993403;28;20483;-66
2022/09/21 04:04:36;;;;;;;4.17;2.20;;;8.60;99.90;;;;;;4995069;28;20046;-66
2022/09/21 04:07:02;;;;;;;4.43;2.20;;;8.50;99.90;;;;;;4997156;28;20051;-66
2022/09/21 04:09:28;;;;;;;4.07;2.07;;;8.50;99.90;;;;;;4997106;28;20042;-66
2022/09/21 04:11:53;;;;;;;4.10;1.97;;;8.60;99.90;;;;;;4997503;28;20077;-66
2022/09/21 04:14:19;;;;;;;6.13;2.30;;;8.50;99.90;;;;;;4996797;28;20391;-66
2022/09/21 04:16:45;;;;;;;5.30;2.20;;;8.50;99.90;;;;;;4996638;28;20061;-67
2022/09/21 04:19:11;;;;;;;5.07;2.30;;;8.50;99.90;;;;;;4995170;28;20066;-66
2022/09/21 04:21:37;;;;;;;6.90;2.27;;;8.40;99.90;;;;;;4996667;28;20046;-66
2022/09/21 04:24:03;;;;;;;7.20;2.43;;;8.40;99.90;;;;;;4996667;28;20452;-66
2022/09/21 04:26:31;;;;;;;6.00;2.37;;;8.40;99.90;;;;;;4996553;28;20293;-66
2022/09/21 04:28:58;;;;;;;3.83;2.07;;;8.50;99.90;;;;;;4996250;28;20285;-66
2022/09/21 04:31:25;;;;;;;5.63;1.97;;;8.50;99.90;;;;;;4996407;28;20296;-66
2022/09/21 04:33:52;;;;;;;5.87;2.23;;;8.50;99.90;;;;;;4996387;28;20317;-66
2022/09/21 04:36:19;;;;;;;4.67;2.17;;;8.50;99.90;;;;;;4996588;28;20300;-66
2022/09/21 04:38:45;;;;;;;6.33;2.10;;;8.40;99.90;;;;;;4996215;28;20627;-68
2022/09/21 04:41:12;;;;;;;4.17;2.10;;;8.40;99.90;;;;;;4996258;28;20274;-66
2022/09/21 04:43:41;;;;;;;3.93;1.87;;;8.40;99.90;;;;;;4996248;28;20316;-66
2022/09/21 04:46:09;;;;;;;4.80;2.17;;;8.40;99.90;;;;;;4996060;28;20848;-66
2022/09/21 04:48:35;;;;;;;3.90;2.07;;;8.40;99.90;;;;;;4996683;28;20281;-66
2022/09/21 04:51:02;;;;;;;4.80;2.33;;;8.40;99.90;;;;;;4996019;28;20289;-66
2022/09/21 04:53:28;;;;;;;4.57;2.33;;;8.30;99.90;;;;;;4996039;28;20285;-66
2022/09/21 04:55:54;;;;;;;7.10;1.90;;;8.30;99.90;;;;;;4996014;28;20288;-67
2022/09/21 04:58:21;;;;;;;5.43;2.10;;;8.30;99.90;;;;;;4995876;28;20329;-66
2022/09/21 05:00:51;;;;;;;6.83;2.33;;;8.30;99.90;;;;;;4996434;28;20788;-68
2022/09/21 05:03:20;;;;;;;4.67;2.10;;;8.30;99.90;;;;;;4996630;28;20313;-66
2022/09/21 05:05:50;;;;;;;4.67;2.13;;;8.30;99.90;;;;;;4995894;28;20356;-66
2022/09/21 05:10:01;;;;;;;7.33;2.10;;;8.30;99.90;;;;;;4995799;28;20281;-66
2022/09/21 05:11:04;;;;;;;5.10;1.97;;;8.30;99.90;;;;;;4996238;28;20277;-66
2022/09/21 05:13:29;;;;;;;4.33;2.10;;;8.30;99.90;;;;;;4995797;28;20274;-66
2022/09/21 05:15:55;;;;;;;5.50;2.20;;;8.30;99.90;;;;;;4995128;28;20332;-66
2022/09/21 05:18:21;;;;;;;5.40;2.17;;;8.30;99.90;;;;;;4995899;28;20038;-66
2022/09/21 05:20:56;;;;;;;4.47;2.13;;;8.30;99.90;;;;;;4995535;28;20053;-66
2022/09/21 05:23:23;;;;;;;5.80;2.50;;;8.20;99.90;;;;;;4995817;28;20046;-66
2022/09/21 05:25:49;;;;;;;4.87;2.40;;;8.30;99.90;;;;;;4995459;28;20288;-66
2022/09/21 05:28:19;;;;;;;8.07;2.90;;;8.30;99.90;;;;;;4995183;28;20273;-66
2022/09/21 05:31:05;;;;;;;5.67;2.53;;;8.30;99.90;;;;;;4995660;28;20745;-66
2022/09/21 05:33:33;;;;;;;5.90;2.70;;;8.20;99.90;;;;;;4995316;28;20273;-67
2022/09/21 05:36:10;;;;;;;6.03;2.27;;;8.30;99.90;;;;;;4993915;28;20657;-66
2022/09/21 05:38:36;;;;;;;6.27;2.50;;;8.20;99.90;;;;;;4995954;28;20304;-66
2022/09/21 05:41:02;;;;;;;7.80;2.50;;;8.20;99.90;;;;;;4995620;28;20273;-66
2022/09/21 05:43:28;;;;;;;5.53;2.30;;;8.20;99.90;;;;;;4995708;28;20300;-66
2022/09/21 05:46:04;;;;;;;6.43;2.40;;;8.20;99.90;;;;;;4993819;28;20278;-67
2022/09/21 05:48:39;;;;;;;5.13;2.40;;;8.20;99.90;;;;;;4994555;28;20301;-66
2022/09/21 05:51:25;;;;;;;6.00;2.10;;;8.30;99.90;;;;;;4995038;28;20274;-66
2022/09/21 05:54:05;;;;;;;5.77;2.87;;;8.40;99.90;;;;;;4995186;28;20104;-66
2022/09/21 05:56:46;;;;;;;5.60;2.77;;;8.40;99.90;;;;;;4995421;28;20357;-66
2022/09/21 05:59:31;;;;;;;5.10;2.53;;;8.40;99.90;;;;;;4994754;28;20297;-66
2022/09/21 06:01:57;;;;;;;5.20;2.63;;;8.40;99.90;;;;;;4994967;28;20773;-66
2022/09/21 06:04:23;;;;;;;4.40;2.30;;;8.40;99.90;;;;;;4995396;28;20061;-66
2022/09/21 06:06:49;;;;;;;4.30;2.33;;;8.40;99.90;;;;;;4994662;28;20482;-66
2022/09/21 06:09:14;;;;;;;5.70;3.40;;;8.40;99.90;;;;;;4994801;28;20288;-66
2022/09/21 06:11:40;;;;;;;5.50;2.63;;;8.40;99.90;;;;;;4994590;28;20050;-66
2022/09/21 06:14:06;;;;;;;5.00;2.50;;;8.50;99.90;;;;;;4995072;28;20494;-66
2022/09/21 06:16:39;;;;;;;4.70;2.70;;;8.50;99.90;;;;;;4993335;28;20159;-66
2022/09/21 06:19:05;;;;;;;4.60;2.23;;;8.50;99.90;;;;;;4994412;28;20046;-66
2022/09/21 06:21:31;;;;;;;5.23;2.50;;;8.50;99.90;;;;;;4994462;28;20289;-66
2022/09/21 06:23:56;;;;;;;5.70;2.20;;;8.50;99.90;;;;;;4994398;28;20288;-68
2022/09/21 06:26:22;;;;;;;5.67;2.63;;;8.50;99.90;;;;;;4994203;28;20133;-66
2022/09/21 06:28:48;;;;;;;6.90;2.37;;;8.60;99.90;;;;;;4994285;28;20094;-66
2022/09/21 06:31:13;;;;;;;8.40;2.40;;;8.60;99.90;;;;;;4994293;28;20054;-66
2022/09/21 06:33:39;;;;;;;7.13;2.80;;;8.70;99.90;;;;;;4994334;28;20557;-66
2022/09/21 06:36:05;;;;;;;4.90;2.47;;;8.80;99.90;;;;;;4994253;28;20046;-66
2022/09/21 06:38:31;;;;;;;5.50;2.53;;;8.80;99.90;;;;;;4994165;28;20046;-66
2022/09/21 06:41:02;;;;;;;6.30;2.47;;;8.80;99.90;;;;;;4993855;28;20137;-66
2022/09/21 06:43:28;;;;;;;6.27;2.77;;;8.90;99.90;;;;;;4993533;28;20054;-66
2022/09/21 06:45:58;;;;;;;4.50;2.27;;;9.00;99.90;;;;;;4994186;28;20413;-66
2022/09/21 06:48:25;;;;;;;5.23;2.97;;;9.00;99.90;;;;;;4994659;28;20132;-66
2022/09/21 06:50:59;;;;;;;6.47;2.60;;;9.60;99.90;;;;;;4994108;28;20287;-66
2022/09/21 06:53:26;;;;;;;5.80;2.50;;;9.80;99.90;;;;;;4994386;28;20336;-67
2022/09/21 06:55:52;;;;;;;6.77;2.53;;;;;;;;;;4994076;28;20360;-67
2022/09/21 06:58:18;;;;;;;6.53;3.03;;;13.40;99.90;;;;;;4994352;28;20309;-67
2022/09/21 07:00:45;;;;;;;6.43;3.60;;;13.90;99.90;;;;;;4994029;28;20765;-67
2022/09/21 07:03:12;;;;;;;8.07;4.37;;;15.00;99.90;;;;;;4994142;28;20389;-67
2022/09/21 07:05:38;;;;;;;9.13;5.47;;;;;;;;;;4993480;28;20277;-68
2022/09/21 07:08:04;;;;;;;7.87;4.63;;;17.20;96.60;;;;;;4994694;28;20274;-68
2022/09/21 07:10:30;;;;;;;8.07;5.10;;;17.50;99.90;;;;;;4994195;28;20285;-65
2022/09/21 07:13:02;;;;;;;6.07;3.97;;;;;;;;;;4993914;28;20070;-68
2022/09/21 07:15:28;;;;;;;8.57;4.77;;;;;;;;;;4994241;28;20073;-65
2022/09/21 07:17:55;;;;;;;6.57;3.67;;;;;;;;;;4993774;28;20042;-66
2022/09/21 07:20:20;;;;;;;6.40;4.10;;;20.60;75.20;;;;;;4993803;28;20046;-66
2022/09/21 07:22:47;;;;;;;6.90;4.13;;;;;;;;;;4993075;28;20137;-65
2022/09/21 07:25:13;;;;;;;9.17;4.43;;;;;;;;;;4994502;28;20143;-66
2022/09/21 07:27:39;;;;;;;5.93;2.33;;;21.20;66.90;;;;;;4993809;28;20087;-65
2022/09/21 07:30:06;;;;;;;7.63;2.70;;;21.30;99.90;;;;;;4994181;28;20058;-66
2022/09/21 07:32:32;;;;;;;6.30;2.10;;;20.40;87.60;;;;;;4993664;28;20132;-66
2022/09/21 07:34:58;;;;;;;5.70;1.87;;;19.50;90.00;;;;;;4992528;28;20375;-65
2022/09/21 07:37:25;;;;;;;8.43;2.30;;;;;;;;;;4993204;28;20042;-66
2022/09/21 07:39:51;;;;;;;8.50;2.30;;;18.20;99.90;;;;;;4978863;28;20065;-66
2022/09/21 07:42:19;;;;;;;8.87;2.70;;;17.70;97.30;;;;;;4997389;28;20082;-65
2022/09/21 07:44:45;;;;;;;7.37;2.20;;;17.30;99.60;;;;;;4997340;28;20085;-66
2022/09/21 07:47:12;;;;;;;6.87;2.27;;;17.10;99.90;;;;;;4997358;28;20061;-67
2022/09/21 07:49:38;;;;;;;6.80;2.17;;;16.80;99.90;;;;;;4997323;28;20049;-66
2022/09/21 07:52:04;;;;;;;7.77;2.13;;;16.50;99.90;;;;;;4997335;28;20058;-67
2022/09/21 07:54:32;;;;;;;9.77;2.10;;;16.40;99.90;;;;;;4997198;28;20363;-66
2022/09/21 07:59:42;;;;;;;4.97;1.63;;;16.20;99.90;;;;;;4996395;28;20554;-66
2022/09/21 08:02:08;;;;;;;7.60;1.97;;;16.20;99.90;;;;;;4997093;28;20050;-70
2022/09/21 08:04:33;;;;;;;5.10;1.70;;;16.10;99.90;;;;;;4997034;28;20137;-66
2022/09/21 08:06:59;;;;;;;7.30;1.90;;;16.20;99.90;;;;;;4997467;28;20065;-66
2022/09/21 08:09:25;;;;;;;5.10;1.60;;;16.10;99.90;;;;;;4997175;28;20085;-66
2022/09/21 08:11:51;;;;;;;7.03;2.13;;;;;;;;;;4996923;28;20077;-66
2022/09/21 08:14:20;;;;;;;8.43;1.70;;;16.10;99.90;;;;;;4995830;28;20050;-66
2022/09/21 08:16:46;;;;;;;7.00;2.20;;;16.00;99.90;;;;;;4997295;28;20046;-66
2022/09/21 08:19:16;;;;;;;7.73;1.87;;;16.00;99.90;;;;;;4996669;28;20046;-66
2022/09/21 08:21:42;;;;;;;5.23;1.70;;;15.90;99.90;;;;;;4996765;28;20052;-66
2022/09/21 08:24:09;;;;;;;5.73;1.97;;;15.90;99.90;;;;;;4996650;28;20581;-66
2022/09/21 08:26:34;;;;;;;10.37;2.37;;;15.80;99.90;;;;;;4997423;28;20042;-66
2022/09/21 08:29:01;;;;;;;5.37;1.73;;;15.70;99.90;;;;;;4996989;28;20403;-66
2022/09/21 08:31:27;;;;;;;7.53;2.00;;;15.70;99.90;;;;;;4996603;28;20047;-66
2022/09/21 08:33:56;;;;;;;6.70;1.70;;;15.70;99.90;;;;;;4996218;28;20050;-66
2022/09/21 08:36:22;;;;;;;6.73;1.87;;;15.60;99.90;;;;;;4996478;28;20061;-66
2022/09/21 08:38:48;;;;;;;9.07;1.83;;;15.60;99.90;;;;;;4996369;28;20046;-66
2022/09/21 08:41:22;;;;;;;5.83;1.67;;;15.50;99.90;;;;;;4996376;28;20068;-66
2022/09/21 08:43:52;;;;;;;7.80;1.80;;;15.50;99.90;;;;;;4996875;28;20100;-66
2022/09/21 08:46:25;;;;;;;8.00;1.57;;;15.40;99.90;;;;;;4996321;28;20093;-66
2022/09/21 08:48:59;;;;;;;8.07;1.83;;;15.40;99.90;;;;;;4996256;28;20046;-66
2022/09/21 08:51:30;;;;;;;7.07;2.10;;;15.30;99.90;;;;;;4996499;28;20054;-66
2022/09/21 08:54:01;;;;;;;11.43;1.63;;;15.30;99.90;;;;;;4996909;28;20054;-66
2022/09/21 08:56:27;;;;;;;7.60;1.50;;;15.30;99.90;;;;;;4996748;28;20046;-67
2022/09/21 08:58:52;;;;;;;4.83;1.30;;;15.30;99.90;;;;;;4996756;28;20049;-66
2022/09/21 09:01:32;;;;;;;5.70;1.17;;;15.20;99.90;;;;;;4996289;28;20387;-67
2022/09/21 09:04:43;;;;;;;9.97;1.83;;;15.20;99.90;;;;;;4995989;28;20137;-67
2022/09/21 09:07:38;;;;;;;8.00;2.23;;;15.20;99.90;;;;;;4995966;28;20282;-66
2022/09/21 09:10:33;;;;;;;9.93;1.70;;;15.20;99.90;;;;;;4996444;28;20060;-67
2022/09/21 09:13:22;;;;;;;8.88;1.30;;;15.20;99.90;;;;;;4996670;28;20060;-66
2022/09/21 09:15:48;;;;;;;8.63;1.70;;;15.20;99.90;;;;;;4996548;28;20137;-66
2022/09/21 09:18:28;;;;;;;6.13;1.33;;;15.30;99.90;;;;;;4994529;28;20454;-66
2022/09/21 09:21:08;;;;;;;9.73;1.53;;;15.30;99.90;;;;;;4995762;28;20144;-66
2022/09/21 09:23:44;;;;;;;6.53;1.60;;;15.40;99.90;;;;;;4995632;28;20051;-70
2022/09/21 09:26:18;;;;;;;7.90;1.47;;;15.50;99.90;;;;;;4996110;28;20376;-69
2022/09/21 09:28:53;;;;;;;10.17;1.60;;;15.60;99.90;;;;;;4995415;28;20094;-70
2022/09/21 09:31:30;;;;;;;;;;;15.60;99.90;;;;;;4995231;28;20304;-71
2022/09/21 09:34:16;;;;;;;8.13;1.80;;;15.60;99.90;;;;;;4995483;28;19972;-68
2022/09/21 09:36:51;;;;;;;8.27;2.13;;;15.70;99.90;;;;;;4996183;28;20156;-69
2022/09/21 09:39:16;;;;;;;9.23;1.73;;;15.80;99.90;;;;;;4995324;28;20302;-69
2022/09/21 09:41:54;;;;;;;9.10;1.77;;;15.90;99.90;;;;;;4995276;28;20285;-70
2022/09/21 09:44:39;;;;;;;5.83;1.47;;;15.90;99.90;;;;;;4995645;28;20137;-68
2022/09/21 09:47:20;;;;;;;7.03;1.42;;;15.90;99.90;;;;;;4995180;28;20053;-72
2022/09/21 09:50:04;;;;;;;5.57;1.20;;;15.90;99.90;;;;;;4995190;28;20046;-68
2022/09/21 09:52:31;;;;;;;6.30;1.38;;;15.80;99.90;;;;;;4995029;28;20047;-69
2022/09/21 09:54:58;;;;;;;7.70;1.50;;;15.80;99.90;;;;;;4994965;28;20060;-69
2022/09/21 09:57:30;;;;;;;5.20;1.23;;;15.70;99.90;;;;;;4994874;28;20133;-69
2022/09/21 10:00:10;;;;;;;5.70;1.37;;;15.70;99.90;;;;;;4994814;28;20105;-69
2022/09/21 10:02:46;;;;;;;7.40;1.60;;;15.60;99.90;;;;;;4994400;28;20125;-70
2022/09/21 10:05:31;;;;;;;7.83;1.63;;;15.50;99.90;;;;;;4995592;28;20050;-66
2022/09/21 10:07:57;;;;;;;5.70;1.42;;;15.50;99.90;;;;;;4993617;28;20282;-69
2022/09/21 10:10:31;;;;;;;6.40;1.70;;;15.40;99.90;;;;;;4994977;28;20050;-71
2022/09/21 10:13:13;;;;;;;9.05;1.70;;;15.30;99.90;;;;;;4995578;28;20056;-68
2022/09/21 10:16:00;;;;;;;6.37;1.50;;;15.30;99.90;;;;;;4995171;28;20046;-69
2022/09/21 10:18:26;;;;;;;7.00;1.33;;;;;;;;;;4984545;28;20324;-70
2022/09/21 10:21:09;;;;;;;3.67;1.13;;;15.20;99.90;;;;;;4994559;28;20402;-69
2022/09/21 10:23:36;;;;;;;6.70;1.33;;;15.10;99.90;;;;;;4993377;28;20278;-67
2022/09/21 10:26:11;;;;;;;8.77;1.40;;;15.10;99.90;;;;;;4994458;28;20297;-66
2022/09/21 10:28:57;;;;;;;7.72;1.40;;;15.10;99.90;;;;;;4994153;28;20125;-64
2022/09/21 10:31:26;;;;;;;8.23;1.30;;;15.20;99.90;;;;;;4994389;28;20434;-67
2022/09/21 10:34:00;;;;;;;5.53;1.23;;;15.20;99.90;;;;;;4994315;28;20773;-66
2022/09/21 10:36:34;;;;;;;6.57;1.30;;;15.30;99.90;;;;;;4994377;28;20297;-69
2022/09/21 10:39:19;;;;;;;7.03;1.40;;;15.30;99.90;;;;;;4994213;28;20069;-65
2022/09/21 10:42:10;;;;;;;8.70;1.57;;;15.30;99.90;;;;;;4994198;28;20046;-66
2022/09/21 10:44:44;;;;;;;7.03;1.47;;;15.40;99.90;;;;;;4994485;28;20292;-67
2022/09/21 10:47:23;;;;;;;9.07;1.50;;;15.40;99.90;;;;;;4994174;28;20046;-67
2022/09/21 10:49:52;;;;;;;3.77;1.00;;;15.50;99.80;;;;;;4994137;28;20562;-66
2022/09/21 10:52:21;;;;;;;6.03;1.00;;;15.60;99.90;;;;;;4994071;28;20285;-67
2022/09/21 10:54:50;;;;;;;8.47;1.50;;;15.60;99.90;;;;;;4994094;28;20285;-67
2022/09/21 10:57:19;;;;;;;7.97;1.97;;;15.60;99.90;;;;;;4993974;28;20057;-67
2022/09/21 10:59:45;;;;;;;6.23;1.30;;;15.70;99.20;;;;;;4994005;28;20050;-67
2022/09/21 11:02:31;;;;;;;4.80;1.17;;;15.60;99.40;;;;;;4994768;28;20347;-66
2022/09/21 11:05:10;;;;;;;7.73;1.97;;;15.70;99.10;;;;;;4994216;28;20514;-66
2022/09/21 11:08:01;;;;;;;8.07;1.67;;;15.80;98.70;;;;;;4993909;28;20086;-66
2022/09/21 11:10:50;;;;;;;6.13;1.30;;;15.80;97.90;;;;;;4994195;28;20368;-66
2022/09/21 11:13:24;;;;;;;2.83;1.10;;;15.80;98.00;;;;;;4994063;28;20042;-70
2022/09/21 11:15:58;;;;;;;3.10;0.97;;;15.80;97.70;;;;;;4997399;28;20500;-68
2022/09/21 11:18:43;;;;;;;4.33;1.00;;;15.80;95.40;;;;;;4997691;28;20300;-68
2022/09/21 11:21:18;;;;;;;5.00;1.20;;;15.90;96.20;;;;;;4998349;28;20150;-67
2022/09/21 11:24:11;;;;;;;8.97;1.80;;;15.80;96.50;;;;;;4997723;28;20052;-68
2022/09/21 11:26:58;;;;;;;5.20;1.20;;;15.80;96.30;;;;;;4997621;28;20289;-75
2022/09/21 11:29:30;;;;;;;6.53;1.50;;;15.80;97.10;;;;;;4997837;28;20054;-68
2022/09/21 11:32:14;;;;;;;4.60;1.20;;;15.80;98.00;;;;;;4998244;28;20061;-67
2022/09/21 11:35:07;;;;;;;5.50;1.47;;;15.80;97.30;;;;;;4998193;28;20334;-68
2022/09/21 11:38:11;;;;;;;6.50;1.53;;;15.80;97.40;;;;;;4998140;28;20093;-68
2022/09/21 11:40:45;;;;;;;5.00;1.20;;;15.90;97.20;;;;;;4937191;29;20176;-66
2022/09/21 11:43:23;;;;;;;5.72;1.50;;;15.80;96.90;;;;;;4990409;28;20141;-66
2022/09/21 11:46:19;;;;;;;6.30;1.17;;;15.90;96.90;;;;;;4997980;28;20125;-66
2022/09/21 11:49:03;;;;;;;;;;;15.90;96.90;;;;;;4997859;28;20053;-66
2022/09/21 11:51:42;;;;;;;8.33;1.30;;;15.80;97.00;;;;;;4997055;28;20425;-66
2022/09/21 11:54:27;;;;;;;5.83;1.20;;;15.80;97.20;;;;;;4997317;28;20782;-66
2022/09/21 11:57:18;;;;;;;4.43;1.13;;;15.80;96.90;;;;;;4997379;28;20054;-66
2022/09/21 12:00:05;;;;;;;5.03;1.30;;;15.80;97.30;;;;;;4995989;28;20133;-66
2022/09/21 12:02:40;;;;;;;4.23;1.33;;;15.80;96.40;;;;;;4997247;28;20100;-66
2022/09/21 12:05:12;;;;;;;;;;;15.80;96.50;;;;;;4997261;28;20290;-66
2022/09/21 12:08:08;;;;;;;3.70;0.97;;;15.80;95.80;;;;;;4997159;28;20019;-67
2022/09/21 12:10:49;;;;;;;5.53;1.30;;;15.80;96.00;;;;;;4997642;28;20320;-66
2022/09/21 12:13:33;;;;;;;7.10;1.33;;;15.80;96.30;;;;;;4997469;28;20641;-66
2022/09/21 12:16:25;;;;;;;4.57;1.00;;;15.80;95.60;;;;;;4997480;28;20285;-71
2022/09/21 12:19:20;;;;;;;7.20;1.60;;;15.70;96.50;;;;;;4985913;28;20317;-67
2022/09/21 12:21:49;;;;;;;5.95;1.25;;;15.70;97.20;;;;;;4996896;28;20061;-65
2022/09/21 12:24:26;;;;;;;6.47;1.10;;;15.60;96.90;;;;;;4996526;28;20046;-66
2022/09/21 12:27:00;;;;;;;6.17;1.30;;;15.60;97.10;;;;;;4997302;28;20313;-66
2022/09/21 12:29:30;;;;;;;5.20;1.17;;;15.60;97.70;;;;;;4996764;28;20488;-66
2022/09/21 12:32:31;;;;;;;4.90;1.20;;;15.50;98.30;;;;;;4997394;28;20297;-66
2022/09/21 12:35:01;;;;;;;10.73;1.50;;;15.50;98.70;;;;;;4974203;28;20634;-66
2022/09/21 12:37:42;;;;;;;7.03;1.30;;;15.40;99.10;;;;;;4996743;28;20281;-65
2022/09/21 12:40:25;;;;;;;3.70;1.07;;;15.40;99.10;;;;;;4996470;28;20738;-66
2022/09/21 12:43:16;;;;;;;4.77;1.33;;;15.50;98.00;;;;;;4996600;28;20273;-65
2022/09/21 12:45:49;;;;;;;5.17;2.00;;;15.60;96.70;;;;;;4996232;28;20046;-66
2022/09/21 12:48:35;;;;;;;4.67;1.23;;;15.70;96.50;;;;;;4996329;28;20280;-66
2022/09/21 12:51:19;;;;;;;4.03;1.08;;;15.80;94.80;;;;;;4996534;28;20289;-66
2022/09/21 12:53:47;;;;;;;5.00;0.90;;;15.90;95.40;;;;;;4995555;28;20064;-66
2022/09/21 12:56:45;;;;;;;7.53;1.50;;;15.90;95.00;;;;;;4995129;28;20380;-66
2022/09/21 12:59:37;;;;;;;7.97;1.60;;;15.90;96.20;;;;;;4996360;28;20293;-66
2022/09/21 13:02:23;;;;;;;13.63;1.47;;;15.90;94.80;;;;;;4996598;28;20049;-66
2022/09/21 13:05:01;;;;;;;7.70;1.20;;;15.90;95.30;;;;;;4995975;28;20464;-66
2022/09/21 13:07:54;;;;;;;7.27;1.53;;;15.90;96.80;;;;;;4996740;28;20292;-65
2022/09/21 13:10:40;;;;;;;4.33;1.07;;;15.90;96.10;;;;;;4996414;28;20430;-66
2022/09/21 13:13:16;;;;;;;11.07;1.67;;;15.90;95.50;;;;;;4994992;28;20387;-66
2022/09/21 13:15:46;;;;;;;4.23;1.30;;;16.00;96.00;;;;;;4995797;28;20086;-66
2022/09/21 13:18:35;;;;;;;4.83;1.10;;;16.00;95.30;;;;;;4995626;28;20293;-66
2022/09/21 13:21:17;;;;;;;5.47;1.23;;;16.00;93.20;;;;;;4994717;28;20545;-66
2022/09/21 13:23:52;;;;;;;4.03;1.10;;;16.00;95.10;;;;;;4996197;28;20042;-66
2022/09/21 13:26:48;;;;;;;6.50;1.17;;;16.00;95.70;;;;;;4995899;28;20081;-66
2022/09/21 13:29:17;;;;;;;4.35;1.10;;;15.90;95.40;;;;;;4994994;28;20054;-66